Crandalls Lodge, Iowa
Current Conditions -  °F | °C
As of 11:53 AM on Thursday 30 Oct 2014 (Local Time) from KMJQ Reporting Station
Clear Clear  
Wind Chill: 52°   Ceiling: Unl
Heat Index: 52°   Visibility: 10mi
Dew Point: 32°   Wind: 10mph
Humidity: 47%   Direction: 340°NNW
Pressure: 30.06"   Gusts: 18mph
Location:  43.4265°N, 95.1547°W
Report Text: KMJQ 301653Z AUTO 34009G16KT 10SM CLR 11/00 A3006 RMK AO2
Loading
Personal Weather Stations






























Interactive Weather Map
Tropical Storm Tracking
New forecast layout! Learn more

10-Day Weather Forecast

Advertisements
Track Severe Weather on mobile